Accueil
METAR-TAF:

METAR-TAF

Aéroports :

Aéroport international de Lusaka

Lusaka, Zambie

latitude: 15-19-51S, longitude: 028-27-09E, altitude: 1152 m

Observation

Le bulletin a été fait il y a 2 heures et 18 minutes, à 06:00 UTC
Vent 1 kt de est
Température 17°C
Humidité 45%
Pression 1023 hPa
Visibilité 10 km ou plus
pas de nuages en-dessous de 1500 mètres et pas de cumulonimbus.

METAR: FLKK 210600Z 09001KT CAVOK 17/05 Q1023 NOSIG

Heure: 10:18 (08:18 UTC)

Prévision

Le bulletin a été fait il y a 28 heures et 18 minutes, à 04:00 UTC
Prévision valable du 19 à 06 UTC au 20 à 12 UTC
Vent 5 kt de est
Visibilité: 9000 m
brume sèche
Evoluant progressivement
du 19 à 07 UTC au 19 à 09 UTC
Vent 10 kt de est
A partir de 19 à 1500 UTC
Vent 10 kt de est/nord-est
Visibilité 10 km ou plus
pas de nuages en-dessous de 1500 mètres et pas de cumulonimbus.

TAF: FLKK 190400Z 1906/2012 09005KT 9000 HZ NSC BECMG 1907/1909 09010KT FM191500 06010KT CAVOK

Observations et prévisions météorologiques de plus de 4000 aéroports (messages METAR et TAF).

Les stations disponibles sont représentées par des disques jaunes et rouges sur la carte.

Passer la souris dessus pour voir le nom de la station.

Cliquer dessus pour voir les observations et prévisions météorologiques.

Pour changer de carte: cliquez sur les boutons verts avec une croix noire pour zoomer, sur le bouton vert avec un tiret pour effectuer un zoom arrière, ou sur les flèches vertes pour les cartes adjacentes.


METAR-TAF: